Flight Track Log - Related Links

Times and Time Zones

All times are in EDT time to prevent confusion due to time zone crossing. See the ELY4 flight status page for this flight to view local times or setup timezone preferences in your user account.

Time Position Orientation Groundspeed Altitude Reporting Facility
EDT Latitude Longitude Course Direction KTS MPH feet Rate Location/Type
Wed 12:25:03 PM 40.6667 -73.7500 84° East 177 204 1,300  Level New York TRACON
Wed 12:26:37 PM 40.6747 -73.6442 120° Southeast 194 223 2,600 1,208 Climbing Boston Center
Wed 12:27:37 PM 40.6381 -73.5614 119° Southeast 221 254 4,400 2,444 Climbing Boston Center
Wed 12:28:52 PM 40.5800 -73.4248 121° Southeast 302 348 8,100 2,901 Climbing FlightAware ADS-B
Wed 12:29:08 PM 40.5688 -73.4003 117° Southeast 310 357 8,800 2,471 Climbing FlightAware ADS-B
Wed 12:29:26 PM 40.5564 -73.3683 106° East 318 366 9,500 2,250 Climbing FlightAware ADS-B
Wed 12:29:32 PM 40.5539 -73.3570 99° East 322 371 9,700 1,800 Climbing FlightAware ADS-B
Wed 12:29:36 PM 40.5532 -73.3512 78° East 324 373 9,800 1,421 Climbing FlightAware ADS-B
Wed 12:30:10 PM 40.5642 -73.2831 72° East 350 403 10,600 1,412 Climbing FlightAware ADS-B
Wed 12:30:44 PM 40.5823 -73.2098 73° East 386 444 11,400 1,818 Climbing FlightAware ADS-B
Wed 12:31:16 PM 40.6003 -73.1344 73° East 399 459 12,600 2,328 Climbing FlightAware ADS-B
Wed 12:31:51 PM 40.6196 -73.0519 73° East 409 471 14,000 2,368 Climbing FlightAware ADS-B
Wed 12:33:10 PM 40.6643 -72.8610 73° East 416 479 17,100 2,060 Climbing FlightAware ADS-B
Wed 12:34:37 PM 40.7081 -72.6672 73° East 423 487 19,700 1,959 Climbing Boston Center
Wed 12:35:37 PM 40.7478 -72.4922 73° East 436 502 21,900 2,000 Climbing Boston Center
Wed 12:36:37 PM 40.7853 -72.3331 73° East 450 518 23,700 1,550 Climbing Boston Center
Wed 12:37:37 PM 40.8225 -72.1686 74° East 456 525 25,000 1,350 Climbing Boston Center
Wed 12:38:37 PM 40.8594 -72.0011 71° East 456 525 26,400 1,350 Climbing Boston Center
Wed 12:39:37 PM 40.8942 -71.8636 74° East 454 522 27,700 1,300 Climbing Boston Center
Wed 12:40:37 PM 40.9308 -71.6928 76° East 460 529 29,000 1,200 Climbing Boston Center
Wed 12:41:37 PM 40.9689 -71.4917 72° East 488 562 30,100 1,150 Climbing Boston Center
Wed 12:42:37 PM 41.0050 -71.3428 73° East 487 560 31,300 1,300 Climbing Boston Center
Wed 12:43:37 PM 41.0447 -71.1658 75° East 487 560 32,700 850 Climbing Boston Center
Wed 12:44:37 PM 41.0822 -70.9833 74° East 493 567 33,000 150 Climbing Boston Center
Wed 12:45:37 PM 41.1194 -70.8089 74° East 493 567 33,000  Level Boston Center
Wed 12:46:37 PM 41.1564 -70.6344 75° East 493 567 33,000  Level Boston Center
Wed 12:47:37 PM 41.1911 -70.4650 75° East 488 562 33,000  Level Boston Center
Wed 12:49:58 PM 41.2731 -70.0603 90° East 472 543 33,000  Level New York Center
Wed 12:50:57 PM 41.2739 -69.8808 93° East 472 543 33,000  Level New York Center
Wed 12:51:57 PM 41.2664 -69.6989 93° East 476 548 33,000  Level New York Center
Wed 12:52:55 PM 41.2583 -69.5167 93° East 487 560 33,000  Level New York Center
Wed 12:53:55 PM 41.2503 -69.3350 93° East 492 566 33,000  Level New York Center
Wed 12:54:56 PM 41.2417 -69.1503 94° East 497 572 33,000  Level New York Center
Wed 12:55:56 PM 41.2328 -68.9656 89° East 497 572 33,000  Level New York Center
Wed 12:56:19 PM 41.2333 -68.9333 96° East 515 593 33,000  Level New York Oceanic (ODAPS)
Wed 12:56:57 PM 41.2217 -68.7783 94° East 502 578 33,000  Level New York Center
Wed 12:57:58 PM 41.2122 -68.5911 94° East 502 578 33,000  Level New York Center
Wed 12:58:55 PM 41.2025 -68.4097 94° East 502 578 33,000  Level New York Center
Wed 12:59:55 PM 41.1928 -68.2281 96° East 495 570 33,000  Level New York Center
Wed 01:00:57 PM 41.1786 -68.0603 87° East 495 570 33,000  Level New York Center
Wed 01:01:31 PM 41.1833 -67.9333 97° East 509 586 33,000  Level New York Oceanic (ODAPS)
Wed 01:02:55 PM 41.1614 -67.6892 95° East 495 570 33,000  Level New York Center
Wed 01:03:56 PM 41.1478 -67.4858 95° East 500 575 33,000  Level New York Center
Wed 01:04:56 PM 41.1344 -67.2992 96° East 500 575 33,000  Level New York Center
Wed 01:05:57 PM 41.1186 -67.1128 95° East 500 575 33,000  Level New York Center
Wed 01:06:14 PM 41.1167 -67.0833 360° North 611 703 33,000  Level New York Oceanic (ODAPS)
Wed 01:06:43 PM 41.1167 -67.0833 89° East 520 598 33,000  Level New York Oceanic (ODAPS)
Wed 01:15:32 PM 41.1333 -65.2833 90° East 511 588 33,000  Level New York Oceanic (ODAPS)
Wed 01:29:25 PM 41.1000 -62.6500 92° East 520 598 33,000  Level New York Oceanic (ODAPS)
Wed 01:43:11 PM 41.0000 -60.0000 360° North 519 597 33,000  Level New York Oceanic (ODAPS)
Wed 01:43:18 PM 41.0000 -60.0000 88° East 518 596 33,000  Level New York Oceanic (ODAPS)
Wed 01:57:03 PM 41.0333 -57.4167 90° East 507 583 33,000  Level New York Oceanic (ODAPS)
Wed 02:10:02 PM 41.0000 -55.0000 90° East 520 598 33,000  Level New York Oceanic (ODAPS)
Wed 02:10:53 PM 41.0000 -54.8333 88° East 521 600 33,000  Level New York Oceanic (ODAPS)
Wed 02:24:45 PM 41.0333 -52.2000 90° East 521 600 33,000  Level New York Oceanic (ODAPS)
Wed 02:36:36 PM 41.0000 -50.0000 87° East 529 609 33,000  Level New York Oceanic (ODAPS)
Wed 02:38:38 PM 41.0167 -49.5333 87° East 529 609 33,000  Level New York Oceanic (ODAPS)
Wed 02:52:31 PM 41.1000 -46.8167 89° East 534 615 33,000  Level New York Oceanic (ODAPS)
Wed 03:06:23 PM 41.1000 -44.0667 91° East 534 615 33,000  Level New York Oceanic (ODAPS)
Wed 03:20:16 PM 41.0500 -41.3833 91° East 527 606 33,000  Level New York Oceanic (ODAPS)
Wed 03:28:15 PM 41.0099 -39.7646 87° East 527 606 33,000  Level FlightAware Transoceanic
Wed 03:29:15 PM 41.0176 -39.5763 87° East 527 606 33,000  Level FlightAware Transoceanic
Wed 03:30:15 PM 41.0249 -39.3879 87° East 527 606 33,000  Level FlightAware Transoceanic
Wed 03:31:15 PM 41.0319 -39.1995 87° East 527 606 33,000  Level FlightAware Transoceanic
Wed 03:32:15 PM 41.0386 -39.0110 87° East 527 606 33,000  Level FlightAware Transoceanic
Wed 03:33:15 PM 41.0450 -38.8225 87° East 527 606 33,000  Level FlightAware Transoceanic
Wed 03:34:15 PM 41.0511 -38.6340 88° East 527 606 33,000  Level FlightAware Transoceanic
Wed 03:35:15 PM 41.0568 -38.4454 88° East 527 606 33,000  Level FlightAware Transoceanic
Wed 03:36:15 PM 41.0623 -38.2568 88° East 527 606 33,000  Level FlightAware Transoceanic
Wed 03:37:15 PM 41.0675 -38.0681 88° East 527 606 33,000  Level FlightAware Transoceanic
Wed 03:38:15 PM 41.0723 -37.8795 88° East 527 606 33,000  Level FlightAware Transoceanic
Wed 03:39:15 PM 41.0769 -37.6908 88° East 527 606 33,000  Level FlightAware Transoceanic
Wed 03:40:15 PM 41.0811 -37.5021 88° East 527 606 33,000  Level FlightAware Transoceanic
Wed 03:41:15 PM 41.0850 -37.3133 88° East 527 606 33,000  Level FlightAware Transoceanic
Wed 03:42:15 PM 41.0887 -37.1245 89° East 527 606 33,000  Level FlightAware Transoceanic
Wed 03:43:15 PM 41.0920 -36.9358 89° East 527 606 33,000  Level FlightAware Transoceanic
Wed 03:44:15 PM 41.0950 -36.7470 89° East 527 606 33,000  Level FlightAware Transoceanic
Wed 03:45:15 PM 41.0977 -36.5582 89° East 527 606 33,000  Level FlightAware Transoceanic
Wed 03:46:15 PM 41.1001 -36.3693 89° East 527 606 33,000  Level FlightAware Transoceanic
Wed 03:47:15 PM 41.1022 -36.1805 89° East 527 606 33,000  Level FlightAware Transoceanic
Wed 03:48:15 PM 41.1039 -35.9916 89° East 527 606 33,000  Level FlightAware Transoceanic
Wed 03:49:15 PM 41.1054 -35.8027 89° East 527 606 33,000  Level FlightAware Transoceanic
Wed 03:50:15 PM 41.1066 -35.6139 90° East 527 606 33,000  Level FlightAware Transoceanic
Wed 03:51:15 PM 41.1074 -35.4250 90° East 527 606 33,000  Level FlightAware Transoceanic
Wed 03:52:15 PM 41.1079 -35.2361 90° East 527 606 33,000  Level FlightAware Transoceanic
Wed 03:53:15 PM 41.1082 -35.0472 90° East 527 606 33,000  Level FlightAware Transoceanic
Wed 03:54:15 PM 41.1081 -34.8583 90° East 527 606 33,000  Level FlightAware Transoceanic
Wed 03:55:15 PM 41.1077 -34.6694 90° East 527 606 33,000  Level FlightAware Transoceanic
Wed 03:56:15 PM 41.1070 -34.4806 90° East 527 606 33,000  Level FlightAware Transoceanic
Wed 03:57:15 PM 41.1060 -34.2917 90° East 527 606 33,000  Level FlightAware Transoceanic
Wed 03:58:15 PM 41.1047 -34.1028 91° East 527 606 33,000  Level FlightAware Transoceanic
Wed 03:59:15 PM 41.1031 -33.9140 91° East 527 606 33,000  Level FlightAware Transoceanic
Wed 04:00:15 PM 41.1012 -33.7251 91° East 527 606 33,000  Level FlightAware Transoceanic
Wed 04:01:15 PM 41.0989 -33.5363 91° East 527 606 33,000  Level FlightAware Transoceanic
Wed 04:02:15 PM 41.0964 -33.3474 91° East 527 606 33,000  Level FlightAware Transoceanic
Wed 04:03:15 PM 41.0935 -33.1586 91° East 527 606 33,000  Level FlightAware Transoceanic
Wed 04:04:15 PM 41.0904 -32.9698 91° East 527 606 33,000  Level FlightAware Transoceanic
Wed 04:05:15 PM 41.0869 -32.7811 91° East 527 606 33,000  Level FlightAware Transoceanic
Wed 04:06:15 PM 41.0831 -32.5923 92° East 527 606 33,000  Level FlightAware Transoceanic
Wed 04:07:15 PM 41.0790 -32.4036 92° East 527 606 33,000  Level FlightAware Transoceanic
Wed 04:08:15 PM 41.0746 -32.2149 92° East 527 606 33,000  Level FlightAware Transoceanic
Wed 04:09:15 PM 41.0699 -32.0262 92° East 527 606 33,000  Level FlightAware Transoceanic
Wed 04:10:15 PM 41.0649 -31.8375 92° East 527 606 33,000  Level FlightAware Transoceanic
Wed 04:11:15 PM 41.0596 -31.6489 92° East 527 606 33,000  Level FlightAware Transoceanic
Wed 04:12:15 PM 41.0540 -31.4603 92° East 527 606 33,000  Level FlightAware Transoceanic
Wed 04:13:15 PM 41.0481 -31.2718 92° East 527 606 33,000  Level FlightAware Transoceanic
Wed 04:14:15 PM 41.0418 -31.0833 93° East 527 606 33,000  Level FlightAware Transoceanic
Wed 04:15:15 PM 41.0353 -30.8948 93° East 527 606 33,000  Level FlightAware Transoceanic
Wed 04:16:15 PM 41.0284 -30.7063 93° East 527 606 33,000  Level FlightAware Transoceanic
Wed 04:17:15 PM 41.0213 -30.5179 93° East 527 606 33,000  Level FlightAware Transoceanic
Wed 04:18:15 PM 41.0138 -30.3295 93° East 527 606 33,000  Level FlightAware Transoceanic
Wed 04:19:15 PM 41.0060 -30.1412 93° East 527 606 33,000  Level FlightAware Transoceanic
Wed 04:20:15 PM 40.9979 -29.9617 90° East  Level FlightAware Approximate
Wed 04:21:15 PM 40.9975 -29.7818 90° East  Level FlightAware Approximate
Wed 04:22:15 PM 40.9968 -29.6019 90° East  Level FlightAware Approximate
Wed 04:23:15 PM 40.9958 -29.4221 90° East  Level FlightAware Approximate
Wed 04:24:15 PM 40.9946 -29.2422 91° East  Level FlightAware Approximate
Wed 04:25:15 PM 40.9931 -29.0623 91° East  Level FlightAware Approximate
Wed 04:26:15 PM 40.9913 -28.8825 91° East  Level FlightAware Approximate
Wed 04:27:15 PM 40.9892 -28.7027 91° East  Level FlightAware Approximate
Wed 04:28:15 PM 40.9868 -28.5229 91° East  Level FlightAware Approximate
Wed 04:29:15 PM 40.9842 -28.3431 91° East  Level FlightAware Approximate
Wed 04:30:15 PM 40.9813 -28.1633 91° East  Level FlightAware Approximate
Wed 04:31:15 PM 40.9781 -27.9835 91° East  Level FlightAware Approximate
Wed 04:32:15 PM 40.9746 -27.8037 92° East  Level FlightAware Approximate
Wed 04:33:15 PM 40.9709 -27.6240 92° East  Level FlightAware Approximate
Wed 04:34:15 PM 40.9668 -27.4443 92° East  Level FlightAware Approximate
Wed 04:35:15 PM 40.9625 -27.2646 92° East  Level FlightAware Approximate
Wed 04:36:15 PM 40.9579 -27.0849 92° East  Level FlightAware Approximate
Wed 04:37:15 PM 40.9531 -26.9053 92° East  Level FlightAware Approximate
Wed 04:38:15 PM 40.9479 -26.7257 92° East  Level FlightAware Approximate
Wed 04:39:15 PM 40.9425 -26.5461 92° East  Level FlightAware Approximate
Wed 04:40:15 PM 40.9368 -26.3665 92° East  Level FlightAware Approximate
Wed 04:41:15 PM 40.9308 -26.1870 93° East  Level FlightAware Approximate
Wed 04:42:15 PM 40.9246 -26.0075 93° East  Level FlightAware Approximate
Wed 04:43:15 PM 40.9180 -25.8280 93° East  Level FlightAware Approximate
Wed 04:44:15 PM 40.9112 -25.6486 93° East  Level FlightAware Approximate
Wed 04:45:15 PM 40.9041 -25.4692 93° East  Level FlightAware Approximate
Wed 04:46:15 PM 40.8967 -25.2899 93° East  Level FlightAware Approximate
Wed 04:47:15 PM 40.8891 -25.1106 93° East  Level FlightAware Approximate
Wed 04:48:15 PM 40.8812 -24.9313 93° East  Level FlightAware Approximate
Wed 04:49:15 PM 40.8730 -24.7521 94° East  Level FlightAware Approximate
Wed 04:50:15 PM 40.8645 -24.5730 94° East  Level FlightAware Approximate
Wed 04:51:15 PM 40.8557 -24.3938 94° East  Level FlightAware Approximate
Wed 04:52:15 PM 40.8467 -24.2148 94° East  Level FlightAware Approximate
Wed 04:53:15 PM 40.8373 -24.0357 94° East  Level FlightAware Approximate
Wed 04:54:15 PM 40.8278 -23.8568 94° East  Level FlightAware Approximate
Wed 04:55:15 PM 40.8179 -23.6778 94° East  Level FlightAware Approximate
Wed 04:56:15 PM 40.8078 -23.4990 94° East  Level FlightAware Approximate
Wed 04:57:15 PM 40.7973 -23.3202 94° East  Level FlightAware Approximate
Wed 04:58:15 PM 40.7866 -23.1414 95° East  Level FlightAware Approximate
Wed 04:59:15 PM 40.7757 -22.9627 95° East  Level FlightAware Approximate
Wed 05:00:15 PM 40.7644 -22.7840 95° East  Level FlightAware Approximate
Wed 05:01:15 PM 40.7529 -22.6055 95° East  Level FlightAware Approximate
Wed 05:02:15 PM 40.7411 -22.4270 95° East  Level FlightAware Approximate
Wed 05:03:15 PM 40.7290 -22.2485 95° East  Level FlightAware Approximate
Wed 05:04:15 PM 40.7167 -22.0701 95° East  Level FlightAware Approximate
Wed 05:05:15 PM 40.7040 -21.8918 95° East  Level FlightAware Approximate
Wed 05:06:15 PM 40.6912 -21.7136 96° East  Level FlightAware Approximate
Wed 05:07:15 PM 40.6780 -21.5354 96° East  Level FlightAware Approximate
Wed 05:08:15 PM 40.6645 -21.3573 96° East  Level FlightAware Approximate
Wed 05:09:15 PM 40.6508 -21.1792 96° East  Level FlightAware Approximate
Wed 05:10:15 PM 40.6368 -21.0013 96° East  Level FlightAware Approximate
Wed 05:11:15 PM 40.6226 -20.8234 96° East  Level FlightAware Approximate
Wed 05:12:15 PM 40.6080 -20.6456 96° East  Level FlightAware Approximate
Wed 05:13:15 PM 40.5932 -20.4678 85° East  Level FlightAware Approximate
Wed 05:14:15 PM 40.6040 -20.2896 86° East  Level FlightAware Approximate
Wed 05:15:15 PM 40.6145 -20.1113 86° East  Level FlightAware Approximate
Wed 05:16:15 PM 40.6247 -19.9330 86° East  Level FlightAware Approximate
Wed 05:17:15 PM 40.6347 -19.7546 86° East  Level FlightAware Approximate
Wed 05:18:15 PM 40.6444 -19.5761 86° East  Level FlightAware Approximate
Wed 05:19:15 PM 40.6538 -19.3976 86° East  Level FlightAware Approximate
Wed 05:20:15 PM 40.6630 -19.2191 86° East  Level FlightAware Approximate
Wed 05:21:15 PM 40.6718 -19.0405 86° East  Level FlightAware Approximate
Wed 05:22:15 PM 40.6804 -18.8618 86° East  Level FlightAware Approximate
Wed 05:23:15 PM 40.6887 -18.6831 87° East  Level FlightAware Approximate
Wed 05:24:15 PM 40.6968 -18.5044 87° East  Level FlightAware Approximate
Wed 05:25:15 PM 40.7045 -18.3256 87° East  Level FlightAware Approximate
Wed 05:26:15 PM 40.7120 -18.1468 87° East  Level FlightAware Approximate
Wed 05:27:15 PM 40.7192 -17.9680 87° East  Level FlightAware Approximate
Wed 05:28:15 PM 40.7262 -17.7891 87° East  Level FlightAware Approximate
Wed 05:29:15 PM 40.7328 -17.6101 87° East  Level FlightAware Approximate
Wed 05:30:15 PM 40.7392 -17.4312 87° East  Level FlightAware Approximate
Wed 05:31:15 PM 40.7453 -17.2522 87° East  Level FlightAware Approximate
Wed 05:32:15 PM 40.7511 -17.0731 88° East  Level FlightAware Approximate
Wed 05:33:15 PM 40.7567 -16.8941 88° East  Level FlightAware Approximate
Wed 05:34:15 PM 40.7620 -16.7150 88° East  Level FlightAware Approximate
Wed 05:35:15 PM 40.7670 -16.5359 88° East  Level FlightAware Approximate
Wed 05:36:15 PM 40.7717 -16.3567 88° East  Level FlightAware Approximate
Wed 05:37:15 PM 40.7761 -16.1776 88° East  Level FlightAware Approximate
Wed 05:38:15 PM 40.7803 -15.9984 88° East  Level FlightAware Approximate
Wed 05:39:15 PM 40.7842 -15.8192 88° East  Level FlightAware Approximate
Wed 05:40:15 PM 40.7878 -15.6399 39° Northeast  Level FlightAware Approximate
Wed 05:41:15 PM 40.8936 -15.5275 39° Northeast  Level FlightAware Approximate
Wed 05:42:15 PM 40.9992 -15.4146 39° Northeast  Level FlightAware Approximate
Wed 05:43:15 PM 41.1048 -15.3014 39° Northeast  Level FlightAware Approximate
Wed 05:44:15 PM 41.2103 -15.1879 39° Northeast  Level FlightAware Approximate
Wed 05:45:15 PM 41.3156 -15.0740 39° Northeast  Level FlightAware Approximate
Wed 05:46:15 PM 41.4208 -14.9597 39° Northeast  Level FlightAware Approximate
Wed 05:47:15 PM 41.5259 -14.8450 39° Northeast  Level FlightAware Approximate
Wed 05:48:15 PM 41.6309 -14.7300 39° Northeast  Level FlightAware Approximate
Wed 05:49:15 PM 41.7358 -14.6146 39° Northeast  Level FlightAware Approximate
Wed 05:50:15 PM 41.8406 -14.4988 40° Northeast  Level FlightAware Approximate
Wed 05:51:15 PM 41.9452 -14.3826 40° Northeast  Level FlightAware Approximate
Wed 05:52:15 PM 42.0498 -14.2661 40° Northeast  Level FlightAware Approximate
Wed 05:53:15 PM 42.1542 -14.1491 40° Northeast  Level FlightAware Approximate
Wed 05:54:15 PM 42.2585 -14.0318 49° Northeast  Level FlightAware Approximate
Wed 05:55:15 PM 42.3471 -13.8928 49° Northeast  Level FlightAware Approximate
Wed 05:56:15 PM 42.4356 -13.7534 49° Northeast  Level FlightAware Approximate
Wed 05:57:15 PM 42.5239 -13.6136 49° Northeast  Level FlightAware Approximate
Wed 05:58:15 PM 42.6121 -13.4734 50° Northeast  Level FlightAware Approximate
Wed 05:59:15 PM 42.7001 -13.3328 50° Northeast  Level FlightAware Approximate
Wed 06:00:15 PM 42.7879 -13.1918 50° Northeast  Level FlightAware Approximate
Wed 06:01:15 PM 42.8755 -13.0505 50° Northeast  Level FlightAware Approximate
Wed 06:02:15 PM 42.9630 -12.9087 50° Northeast  Level FlightAware Approximate
Wed 06:03:15 PM 43.0502 -12.7665 50° Northeast  Level FlightAware Approximate
Wed 06:04:15 PM 43.1373 -12.6239 50° Northeast  Level FlightAware Approximate
Wed 06:05:15 PM 43.2243 -12.4809 50° Northeast  Level FlightAware Approximate
Wed 06:06:15 PM 43.3110 -12.3375 50° Northeast  Level FlightAware Approximate
Wed 06:07:15 PM 43.3976 -12.1936 50° Northeast  Level FlightAware Approximate
Wed 06:08:15 PM 43.4840 -12.0494 51° Northeast  Level FlightAware Approximate
Wed 06:09:15 PM 43.5702 -11.9048 51° Northeast  Level FlightAware Approximate
Wed 06:10:15 PM 43.6562 -11.7597 51° Northeast  Level FlightAware Approximate
Wed 06:11:15 PM 43.7420 -11.6142 51° Northeast  Level FlightAware Approximate
Wed 06:12:15 PM 43.8277 -11.4684 51° Northeast  Level FlightAware Approximate
Wed 06:13:15 PM 43.9131 -11.3220 51° Northeast  Level FlightAware Approximate
Wed 06:14:15 PM 43.9984 -11.1753 51° Northeast  Level FlightAware Approximate
Wed 06:15:15 PM 44.0835 -11.0282 51° Northeast  Level FlightAware Approximate
Wed 06:16:15 PM 44.1684 -10.8806 51° Northeast  Level FlightAware Approximate
Wed 06:17:15 PM 44.2531 -10.7326 51° Northeast  Level FlightAware Approximate
Wed 06:18:15 PM 44.3376 -10.5842 52° Northeast  Level FlightAware Approximate
Wed 06:19:15 PM 44.4220 -10.4353 52° Northeast  Level FlightAware Approximate
Wed 06:20:15 PM 44.5061 -10.2860 52° Northeast  Level FlightAware Approximate
Wed 06:21:15 PM 44.5900 -10.1363 52° Northeast  Level FlightAware Approximate
Wed 06:22:15 PM 44.6738 -9.9861 52° Northeast  Level FlightAware Approximate
Wed 06:23:15 PM 44.7573 -9.8356 52° Northeast  Level FlightAware Approximate
Wed 06:24:15 PM 44.8407 -9.6845 52° Northeast  Level FlightAware Approximate
Wed 06:25:15 PM 44.9238 -9.5331 52° Northeast  Level FlightAware Approximate
Wed 06:26:15 PM 45.0068 -9.3812 52° Northeast  Level FlightAware Approximate
Wed 06:27:15 PM 45.0895 -9.2289 53° Northeast  Level FlightAware Approximate
Wed 06:28:15 PM 45.1721 -9.0761 53° Northeast  Level FlightAware Approximate
Wed 06:29:15 PM 45.2544 -8.9229 53° Northeast  Level FlightAware Approximate
Wed 06:30:15 PM 45.3365 -8.7692 53° Northeast  Level FlightAware Approximate
Wed 06:31:15 PM 45.4184 -8.6151 53° Northeast  Level FlightAware Approximate
Wed 06:32:15 PM 45.5002 -8.4605 53° Northeast  Level FlightAware Approximate
Wed 06:33:15 PM 45.5817 -8.3055 53° Northeast  Level FlightAware Approximate
Wed 06:34:15 PM 45.6630 -8.1501 53° Northeast  Level FlightAware Approximate
Wed 06:35:15 PM 45.7441 -7.9942 53° Northeast  Level FlightAware Approximate
Wed 06:36:15 PM 45.8249 -7.8378 53° Northeast  Level FlightAware Approximate
Wed 06:37:15 PM 45.9056 -7.6810 54° Northeast  Level FlightAware Approximate
Wed 06:38:15 PM 45.9860 -7.5237 54° Northeast  Level FlightAware Approximate
Wed 06:39:15 PM 46.0663 -7.3660 54° Northeast  Level FlightAware Approximate
Wed 06:40:15 PM 46.1463 -7.2078 54° Northeast  Level FlightAware Approximate
Wed 06:41:15 PM 46.2261 -7.0491 54° Northeast  Level FlightAware Approximate
Wed 06:42:15 PM 46.3056 -6.8900 54° Northeast  Level FlightAware Approximate
Wed 06:43:15 PM 46.3850 -6.7305 54° Northeast  Level FlightAware Approximate
Wed 06:44:15 PM 46.4641 -6.5704 54° Northeast  Level FlightAware Approximate
Wed 06:45:15 PM 46.5430 -6.4099 55° Northeast  Level FlightAware Approximate
Wed 06:46:15 PM 46.6217 -6.2490 55° Northeast  Level FlightAware Approximate
Wed 06:47:15 PM 46.7001 -6.0876 55° Northeast  Level FlightAware Approximate
Wed 06:48:15 PM 46.7784 -5.9257 55° Northeast  Level FlightAware Approximate
Wed 06:49:15 PM 46.8564 -5.7633 103° East  Level FlightAware Approximate
Wed 06:50:15 PM 46.8247 -5.5703 104° East  Level FlightAware Approximate
Wed 06:51:15 PM 46.7927 -5.3775 104° East  Level FlightAware Approximate
Wed 06:52:15 PM 46.7604 -5.1850 104° East  Level FlightAware Approximate
Wed 06:53:15 PM 46.7278 -4.9927 104° East  Level FlightAware Approximate
Wed 06:54:15 PM 46.6948 -4.8006 104° East  Level FlightAware Approximate
Wed 06:55:15 PM 46.6616 -4.6088 104° East  Level FlightAware Approximate
Wed 06:56:15 PM 46.6280 -4.4172 104° East  Level FlightAware Approximate
Wed 06:57:15 PM 46.5941 -4.2258 105° East  Level FlightAware Approximate
Wed 06:58:15 PM 46.5598 -4.0347 105° East  Level FlightAware Approximate
Wed 06:59:15 PM 46.5253 -3.8438 105° East  Level FlightAware Approximate
Wed 07:00:15 PM 46.4904 -3.6532 105° East  Level FlightAware Approximate
Wed 07:01:15 PM 46.4552 -3.4628 105° East  Level FlightAware Approximate
Wed 07:02:15 PM 46.4197 -3.2727 105° East  Level FlightAware Approximate
Wed 07:03:15 PM 46.3839 -3.0828 105° East  Level FlightAware Approximate
Wed 07:04:15 PM 46.3478 -2.8932 106° East  Level FlightAware Approximate
Wed 07:05:15 PM 46.3114 -2.7038 106° East  Level FlightAware Approximate
Wed 07:06:15 PM 46.2746 -2.5146 106° East  Level FlightAware Approximate
Wed 07:07:15 PM 46.2375 -2.3258 106° East  Level FlightAware Approximate
Wed 07:08:15 PM 46.2002 -2.1371 106° East  Level FlightAware Approximate
Wed 07:09:15 PM 46.1625 -1.9488 106° East  Level FlightAware Approximate
Wed 07:10:15 PM 46.1245 -1.7607 106° East  Level FlightAware Approximate
Wed 07:11:15 PM 46.0862 -1.5728 106° East  Level FlightAware Approximate
Wed 07:12:15 PM 46.0476 -1.3852 107° East  Level FlightAware Approximate
Wed 07:13:15 PM 46.0087 -1.1979 107° East  Level FlightAware Approximate
Wed 07:14:15 PM 45.9695 -1.0108 107° East  Level FlightAware Approximate
Wed 07:15:15 PM 45.9299 -0.8240 107° East  Level FlightAware Approximate
Wed 07:16:15 PM 45.8901 -0.6375 107° East  Level FlightAware Approximate
Wed 07:17:15 PM 45.8500 -0.4512 107° East  Level FlightAware Approximate
Wed 07:18:15 PM 45.8095 -0.2653 107° East  Level FlightAware Approximate
Wed 07:19:15 PM 45.7688 -0.0795 108° East  Level FlightAware Approximate
Wed 07:20:15 PM 45.7278 0.1059 108° East  Level FlightAware Approximate
Wed 07:21:15 PM 45.6865 0.2911 108° East  Level FlightAware Approximate
Wed 07:22:15 PM 45.6448 0.4760 108° East  Level FlightAware Approximate
Wed 07:23:15 PM 45.6029 0.6606 108° East  Level FlightAware Approximate
Wed 07:24:15 PM 45.5607 0.8450 108° East  Level FlightAware Approximate
Wed 07:25:15 PM 45.5181 1.0290 108° East  Level FlightAware Approximate
Wed 07:26:15 PM 45.4753 1.2128 108° East  Level FlightAware Approximate
Wed 07:27:15 PM 45.4322 1.3963 109° East  Level FlightAware Approximate
Wed 07:28:15 PM 45.3888 1.5796 109° East  Level FlightAware Approximate
Wed 07:29:15 PM 45.3451 1.7625 109° East  Level FlightAware Approximate
Wed 07:30:15 PM 45.3011 1.9452 109° East  Level FlightAware Approximate
Wed 07:31:15 PM 45.2568 2.1275 109° East  Level FlightAware Approximate
Wed 07:32:15 PM 45.2123 2.3096 109° East  Level FlightAware Approximate
Wed 07:33:15 PM 45.1674 2.4914 109° East  Level FlightAware Approximate
Wed 07:34:15 PM 45.1222 2.6730 109° East  Level FlightAware Approximate
Wed 07:35:15 PM 45.0768 2.8542 110° East  Level FlightAware Approximate
Wed 07:36:15 PM 45.0311 3.0351 110° East  Level FlightAware Approximate
Wed 07:37:15 PM 44.9851 3.2158 110° East  Level FlightAware Approximate
Wed 07:38:15 PM 44.9388 3.3961 110° East  Level FlightAware Approximate
Wed 07:39:15 PM 44.8922 3.5762 110° East  Level FlightAware Approximate
Wed 07:40:15 PM 44.8453 3.7560 110° East  Level FlightAware Approximate
Wed 07:41:15 PM 44.7982 3.9355 110° East  Level FlightAware Approximate
Wed 07:42:15 PM 44.7508 4.1147 111° Southeast  Level FlightAware Approximate
Wed 07:43:15 PM 44.7031 4.2936 111° Southeast  Level FlightAware Approximate
Wed 07:44:15 PM 44.6551 4.4722 111° Southeast  Level FlightAware Approximate
Wed 07:45:15 PM 44.6068 4.6505 111° Southeast  Level FlightAware Approximate
Wed 07:46:15 PM 44.5583 4.8285 111° Southeast  Level FlightAware Approximate
Wed 07:47:15 PM 44.5095 5.0062 111° Southeast  Level FlightAware Approximate
Wed 07:48:15 PM 44.4604 5.1836 111° Southeast  Level FlightAware Approximate
Wed 07:49:15 PM 44.4111 5.3607 111° Southeast  Level FlightAware Approximate
Wed 07:50:15 PM 44.3614 5.5375 112° Southeast  Level FlightAware Approximate
Wed 07:51:15 PM 44.3115 5.7140 112° Southeast  Level FlightAware Approximate
Wed 07:52:15 PM 44.2614 5.8903 112° Southeast  Level FlightAware Approximate
Wed 07:53:15 PM 44.2109 6.0662 112° Southeast  Level FlightAware Approximate
Wed 07:54:15 PM 44.1602 6.2418 112° Southeast  Level FlightAware Approximate
Wed 07:55:15 PM 44.1092 6.4171 112° Southeast  Level FlightAware Approximate
Wed 07:56:15 PM 44.0580 6.5921 112° Southeast  Level FlightAware Approximate
Wed 07:57:15 PM 44.0065 6.7668 112° Southeast  Level FlightAware Approximate
Wed 07:58:15 PM 43.9547 6.9412 112° Southeast  Level FlightAware Approximate
Wed 07:59:15 PM 43.9026 7.1153 113° Southeast  Level FlightAware Approximate
Wed 08:00:15 PM 43.8503 7.2891 113° Southeast  Level FlightAware Approximate
Wed 08:01:15 PM 43.7977 7.4625 113° Southeast  Level FlightAware Approximate
Wed 08:02:15 PM 43.7449 7.6357 113° Southeast  Level FlightAware Approximate
Wed 08:03:15 PM 43.6918 7.8086 113° Southeast  Level FlightAware Approximate
Wed 08:04:15 PM 43.6384 7.9812 113° Southeast  Level FlightAware Approximate
Wed 08:05:15 PM 43.5848 8.1534 113° Southeast  Level FlightAware Approximate
Wed 08:06:15 PM 43.5309 8.3254 110° East  Level FlightAware Approximate
Wed 08:07:15 PM 43.4836 8.5008 110° East  Level FlightAware Approximate
Wed 08:08:15 PM 43.4360 8.6760 111° Southeast  Level FlightAware Approximate
Wed 08:09:15 PM 43.3882 8.8509 111° Southeast  Level FlightAware Approximate
Wed 08:10:15 PM 43.3401 9.0255 111° Southeast  Level FlightAware Approximate
Wed 08:11:15 PM 43.2917 9.1998 111° Southeast  Level FlightAware Approximate
Wed 08:12:15 PM 43.2430 9.3738 111° Southeast  Level FlightAware Approximate
Wed 08:13:15 PM 43.1941 9.5476 111° Southeast  Level FlightAware Approximate
Wed 08:14:15 PM 43.1449 9.7211 111° Southeast  Level FlightAware Approximate
Wed 08:15:15 PM 43.0955 9.8943 111° Southeast  Level FlightAware Approximate
Wed 08:16:15 PM 43.0458 10.0673 112° Southeast  Level FlightAware Approximate
Wed 08:17:15 PM 42.9958 10.2399 112° Southeast  Level FlightAware Approximate
Wed 08:18:15 PM 42.9456 10.4123 112° Southeast  Level FlightAware Approximate
Wed 08:19:15 PM 42.8951 10.5844 112° Southeast  Level FlightAware Approximate
Wed 08:20:15 PM 42.8444 10.7562 112° Southeast  Level FlightAware Approximate
Wed 08:21:15 PM 42.7934 10.9277 112° Southeast  Level FlightAware Approximate
Wed 08:22:15 PM 42.7422 11.0990 112° Southeast  Level FlightAware Approximate
Wed 08:23:15 PM 42.6907 11.2699 112° Southeast  Level FlightAware Approximate
Wed 08:24:15 PM 42.6389 11.4406 112° Southeast  Level FlightAware Approximate
Wed 08:25:15 PM 42.5869 11.6110 113° Southeast  Level FlightAware Approximate
Wed 08:26:15 PM 42.5347 11.7811 113° Southeast  Level FlightAware Approximate
Wed 08:27:15 PM 42.4822 11.9509 113° Southeast  Level FlightAware Approximate
Wed 08:28:15 PM 42.4294 12.1205 113° Southeast  Level FlightAware Approximate
Wed 08:29:15 PM 42.3764 12.2897 113° Southeast  Level FlightAware Approximate
Wed 08:30:15 PM 42.3231 12.4587 113° Southeast  Level FlightAware Approximate
Wed 08:31:15 PM 42.2696 12.6274 113° Southeast  Level FlightAware Approximate
Wed 08:32:15 PM 42.2159 12.7958 113° Southeast  Level FlightAware Approximate
Wed 08:33:15 PM 42.1619 12.9639 113° Southeast  Level FlightAware Approximate
Wed 08:34:15 PM 42.1076 13.1317 114° Southeast  Level FlightAware Approximate
Wed 08:35:15 PM 42.0531 13.2992 114° Southeast  Level FlightAware Approximate
Wed 08:36:15 PM 41.9984 13.4665 114° Southeast  Level FlightAware Approximate
Wed 08:37:15 PM 41.9434 13.6334 114° Southeast  Level FlightAware Approximate
Wed 08:38:15 PM 41.8882 13.8001 114° Southeast  Level FlightAware Approximate
Wed 08:39:15 PM 41.8328 13.9665 114° Southeast  Level FlightAware Approximate
Wed 08:40:15 PM 41.7771 14.1326 114° Southeast  Level FlightAware Approximate
Wed 08:41:15 PM 41.7211 14.2984 114° Southeast  Level FlightAware Approximate
Wed 08:42:15 PM 41.6650 14.4639 114° Southeast  Level FlightAware Approximate
Wed 08:43:15 PM 41.6086 14.6291 115° Southeast  Level FlightAware Approximate
Wed 08:44:15 PM 41.5519 14.7940 115° Southeast  Level FlightAware Approximate
Wed 08:45:15 PM 41.4950 14.9586 115° Southeast  Level FlightAware Approximate
Wed 08:46:15 PM 41.4379 15.1230 115° Southeast  Level FlightAware Approximate
Wed 08:47:15 PM 41.3806 15.2871 115° Southeast  Level FlightAware Approximate
Wed 08:48:15 PM 41.3230 15.4508 115° Southeast  Level FlightAware Approximate
Wed 08:49:15 PM 41.2652 15.6143 115° Southeast  Level FlightAware Approximate
Wed 08:50:15 PM 41.2071 15.7775 115° Southeast  Level FlightAware Approximate
Wed 08:51:15 PM 41.1489 15.9404 115° Southeast  Level FlightAware Approximate
Wed 08:52:15 PM 41.0904 16.1030 116° Southeast  Level FlightAware Approximate
Wed 08:53:15 PM 41.0317 16.2653 116° Southeast  Level FlightAware Approximate
Wed 08:54:15 PM 40.9727 16.4274 116° Southeast  Level FlightAware Approximate
Wed 08:55:15 PM 40.9135 16.5891 116° Southeast  Level FlightAware Approximate
Wed 08:56:15 PM 40.8541 16.7506 116° Southeast  Level FlightAware Approximate
Wed 08:57:15 PM 40.7945 16.9118 116° Southeast  Level FlightAware Approximate
Wed 08:58:15 PM 40.7346 17.0726 116° Southeast  Level FlightAware Approximate
Wed 08:59:15 PM 40.6745 17.2332 116° Southeast  Level FlightAware Approximate
Wed 09:00:15 PM 40.6142 17.3935 116° Southeast  Level FlightAware Approximate
Wed 09:01:15 PM 40.5537 17.5535 117° Southeast  Level FlightAware Approximate
Wed 09:02:15 PM 40.4930 17.7132 117° Southeast  Level FlightAware Approximate
Wed 09:03:15 PM 40.4320 17.8727 117° Southeast  Level FlightAware Approximate
Wed 09:04:15 PM 40.3708 18.0318 117° Southeast  Level FlightAware Approximate
Wed 09:05:15 PM 40.3094 18.1907 117° Southeast  Level FlightAware Approximate
Wed 09:06:15 PM 40.2478 18.3492 117° Southeast  Level FlightAware Approximate
Wed 09:07:15 PM 40.1860 18.5075 117° Southeast  Level FlightAware Approximate
Wed 09:08:15 PM 40.1239 18.6655 117° Southeast  Level FlightAware Approximate
Wed 09:09:15 PM 40.0616 18.8232 117° Southeast  Level FlightAware Approximate
Wed 09:10:15 PM 39.9992 18.9806 117° Southeast  Level FlightAware Approximate
Wed 09:11:15 PM 39.9365 19.1377 118° Southeast  Level FlightAware Approximate
Wed 09:12:15 PM 39.8736 19.2945 118° Southeast  Level FlightAware Approximate
Wed 09:13:15 PM 39.8105 19.4511 118° Southeast  Level FlightAware Approximate
Wed 09:14:15 PM 39.7472 19.6073 118° Southeast  Level FlightAware Approximate
Wed 09:15:15 PM 39.6836 19.7633 118° Southeast  Level FlightAware Approximate
Wed 09:16:15 PM 39.6199 19.9190 118° Southeast  Level FlightAware Approximate
Wed 09:17:15 PM 39.5559 20.0744 118° Southeast  Level FlightAware Approximate
Wed 09:18:15 PM 39.4918 20.2295 118° Southeast  Level FlightAware Approximate
Wed 09:19:15 PM 39.4274 20.3843 118° Southeast  Level FlightAware Approximate
Wed 09:20:15 PM 39.3629 20.5388 118° Southeast  Level FlightAware Approximate
Wed 09:21:15 PM 39.2981 20.6931 119° Southeast  Level FlightAware Approximate
Wed 09:22:15 PM 39.2331 20.8470 119° Southeast  Level FlightAware Approximate
Wed 09:23:15 PM 39.1679 21.0007 119° Southeast  Level FlightAware Approximate
Wed 09:24:15 PM 39.1026 21.1541 119° Southeast  Level FlightAware Approximate
Wed 09:25:15 PM 39.0370 21.3072 119° Southeast  Level FlightAware Approximate
Wed 09:26:15 PM 38.9712 21.4600 119° Southeast  Level FlightAware Approximate
Wed 09:27:15 PM 38.9053 21.6126 119° Southeast  Level FlightAware Approximate
Wed 09:28:15 PM 38.8391 21.7648 119° Southeast  Level FlightAware Approximate
Wed 09:29:15 PM 38.7727 21.9168 119° Southeast  Level FlightAware Approximate
Wed 09:30:15 PM 38.7062 22.0685 119° Southeast  Level FlightAware Approximate
Wed 09:31:15 PM 38.6394 22.2199 120° Southeast  Level FlightAware Approximate
Wed 09:32:15 PM 38.5724 22.3710 120° Southeast  Level FlightAware Approximate
Wed 09:33:15 PM 38.5053 22.5218 120° Southeast  Level FlightAware Approximate
Wed 09:34:15 PM 38.4380 22.6724 120° Southeast  Level FlightAware Approximate
Wed 09:35:15 PM 38.3704 22.8227 120° Southeast  Level FlightAware Approximate
Wed 09:36:15 PM 38.3027 22.9727 120° Southeast  Level FlightAware Approximate
Wed 09:37:15 PM 38.2348 23.1224 120° Southeast  Level FlightAware Approximate
Wed 09:38:15 PM 38.1667 23.2718 120° Southeast  Level FlightAware Approximate
Wed 09:39:15 PM 38.0984 23.4210 120° Southeast  Level FlightAware Approximate
Wed 09:40:15 PM 38.0299 23.5699 120° Southeast  Level FlightAware Approximate
Wed 09:41:15 PM 37.9612 23.7185 120° Southeast  Level FlightAware Approximate
Wed 09:42:15 PM 37.8924 23.8668 121° Southeast  Level FlightAware Approximate
Wed 09:43:15 PM 37.8233 24.0149 121° Southeast  Level FlightAware Approximate
Wed 09:44:15 PM 37.7541 24.1626 121° Southeast  Level FlightAware Approximate
Wed 09:45:15 PM 37.6847 24.3101 121° Southeast  Level FlightAware Approximate
Wed 09:46:15 PM 37.6151 24.4573 120° Southeast  Level FlightAware Approximate
Wed 09:47:15 PM 37.5466 24.6052 120° Southeast  Level FlightAware Approximate
Wed 09:48:15 PM 37.4779 24.7529 120° Southeast  Level FlightAware Approximate
Wed 09:49:15 PM 37.4091 24.9002 121° Southeast  Level FlightAware Approximate
Wed 09:50:15 PM 37.3401 25.0473 121° Southeast  Level FlightAware Approximate
Wed 09:51:15 PM 37.2709 25.1942 121° Southeast  Level FlightAware Approximate
Wed 09:52:15 PM 37.2015 25.3407 121° Southeast  Level FlightAware Approximate
Wed 09:53:15 PM 37.1319 25.4870 121° Southeast  Level FlightAware Approximate
Wed 09:54:15 PM 37.0621 25.6331 121° Southeast  Level FlightAware Approximate
Wed 09:55:15 PM 36.9922 25.7788 121° Southeast  Level FlightAware Approximate
Wed 09:56:15 PM 36.9221 25.9243 121° Southeast  Level FlightAware Approximate
Wed 09:57:15 PM 36.8518 26.0695 121° Southeast  Level FlightAware Approximate
Wed 09:58:15 PM 36.7813 26.2144 121° Southeast  Level FlightAware Approximate
Wed 09:59:15 PM 36.7107 26.3591 121° Southeast  Level FlightAware Approximate
Wed 10:00:15 PM 36.6399 26.5035 121° Southeast  Level FlightAware Approximate
Wed 10:01:15 PM 36.5689 26.6477 122° Southeast  Level FlightAware Approximate
Wed 10:02:15 PM 36.4977 26.7916 122° Southeast  Level FlightAware Approximate
Wed 10:03:15 PM 36.4264 26.9352 122° Southeast  Level FlightAware Approximate
Wed 10:04:15 PM 36.3549 27.0785 122° Southeast  Level FlightAware Approximate
Wed 10:05:15 PM 36.2832 27.2216 122° Southeast  Level FlightAware Approximate
Wed 10:06:15 PM 36.2114 27.3645 122° Southeast  Level FlightAware Approximate
Wed 10:07:15 PM 36.1394 27.5070 122° Southeast  Level FlightAware Approximate
Wed 10:08:15 PM 36.0672 27.6493 122° Southeast  Level FlightAware Approximate
Wed 10:09:15 PM 35.9949 27.7914 122° Southeast  Level FlightAware Approximate
Wed 10:10:15 PM 35.9223 27.9331 122° Southeast  Level FlightAware Approximate
Wed 10:11:15 PM 35.8496 28.0747 122° Southeast  Level FlightAware Approximate
Wed 10:12:15 PM 35.7768 28.2159 122° Southeast  Level FlightAware Approximate
Wed 10:13:15 PM 35.7038 28.3569 123° Southeast  Level FlightAware Approximate
Wed 10:14:15 PM 35.6306 28.4977 123° Southeast  Level FlightAware Approximate
Wed 10:15:15 PM 35.5573 28.6382 123° Southeast  Level FlightAware Approximate
Wed 10:16:15 PM 35.4837 28.7784 123° Southeast  Level FlightAware Approximate
Wed 10:17:15 PM 35.4101 28.9184 123° Southeast  Level FlightAware Approximate
Wed 10:18:15 PM 35.3363 29.0581 123° Southeast  Level FlightAware Approximate
Wed 10:19:15 PM 35.2623 29.1975 123° Southeast  Level FlightAware Approximate
Wed 10:20:15 PM 35.1881 29.3368 123° Southeast  Level FlightAware Approximate
Wed 10:21:15 PM 35.1138 29.4757 123° Southeast  Level FlightAware Approximate
Wed 10:22:15 PM 35.0393 29.6144 123° Southeast  Level FlightAware Approximate
Wed 10:23:15 PM 34.9647 29.7528 123° Southeast  Level FlightAware Approximate
Wed 10:24:15 PM 34.8899 29.8910 123° Southeast  Level FlightAware Approximate
Wed 10:25:15 PM 34.8150 30.0290 124° Southeast  Level FlightAware Approximate
Wed 10:26:15 PM 34.7399 30.1667 124° Southeast  Level FlightAware Approximate
Wed 10:27:15 PM 34.6646 30.3041 124° Southeast  Level FlightAware Approximate
Wed 10:28:15 PM 34.5892 30.4413 124° Southeast  Level FlightAware Approximate
Wed 10:29:15 PM 34.5137 30.5782 124° Southeast  Level FlightAware Approximate
Wed 10:30:15 PM 34.4380 30.7149 124° Southeast  Level FlightAware Approximate
Wed 10:31:15 PM 34.3621 30.8514 124° Southeast  Level FlightAware Approximate
Wed 10:32:15 PM 34.2861 30.9876 124° Southeast  Level FlightAware Approximate
Wed 10:33:15 PM 34.2100 31.1235 124° Southeast  Level FlightAware Approximate
Wed 10:34:15 PM 34.1337 31.2592 124° Southeast  Level FlightAware Approximate
Wed 10:35:15 PM 34.0572 31.3947 124° Southeast  Level FlightAware Approximate
Wed 10:36:15 PM 33.9806 31.5299 124° Southeast  Level FlightAware Approximate
Wed 10:37:15 PM 33.9038 31.6649 124° Southeast  Level FlightAware Approximate
Wed 10:38:15 PM 33.8269 31.7996 125° Southeast  Level FlightAware Approximate
Wed 10:39:15 PM 33.7499 31.9341 125° Southeast  Level FlightAware Approximate
Wed 10:40:15 PM 33.6727 32.0684 125° Southeast  Level FlightAware Approximate
Wed 10:41:15 PM 33.5953 32.2024 125° Southeast  Level FlightAware Approximate
Wed 10:42:15 PM 33.5179 32.3362 125° Southeast  Level FlightAware Approximate
Wed 10:43:15 PM 33.4403 32.4697 125° Southeast  Level FlightAware Approximate
Wed 10:44:15 PM 33.3625 32.6030 125° Southeast  Level FlightAware Approximate
Wed 10:45:15 PM 33.2846 32.7360 125° Southeast  Level FlightAware Approximate
Wed 10:46:15 PM 33.2065 32.8688 125° Southeast  Level FlightAware Approximate
Wed 10:47:15 PM 33.1283 33.0014 160° South  Level FlightAware Approximate
Wed 10:48:15 PM 33.0060 33.0548 121° Southeast  Level FlightAware Approximate
Wed 10:49:15 PM 32.9365 33.1938 123° Southeast  Level FlightAware Approximate
Wed 10:50:15 PM 32.8624 33.3293 118° Southeast  Level FlightAware Approximate
Wed 10:51:15 PM 32.7979 33.4711 124° Southeast  Level FlightAware Approximate
Wed 10:52:15 PM 32.7226 33.6053 117° Southeast  Level FlightAware Approximate
Wed 10:53:15 PM 32.6607 33.7487 125° Southeast  Level FlightAware Approximate
Wed 10:54:15 PM 32.5834 33.8812 125° Southeast  Level FlightAware Approximate
Wed 10:55:15 PM 32.5060 34.0135 107° East  Level FlightAware Approximate
Wed 10:56:15 PM 32.4663 34.1671 133° Southeast  Level FlightAware Approximate
Wed 10:57:15 PM 32.3730 34.2835 127° Southeast  Level FlightAware Approximate
Wed 10:58:15 PM 32.2908 34.4114 127° Southeast  Level FlightAware Approximate

Login

Don't have an account? Register now (free) for customized features, flight alerts, and more!